Time;durP1;ratioP1;P1;durP2;ratioP2;P2;SDS_P1;SDS_P2;PMS_P1;PMS_P2;Temp;Humidity;BMP_temperature;BMP_pressure;BME280_temperature;BME280_humidity;BME280_pressure;Samples;Min_cycle;Max_cycle;Signal;HPM_P1;HPM_P2
2023/01/28 02:14:20;;;;;;;54.70;28.40;;;;;;;-3.98;100.00;100018.86;104846;1302;545540;-64
2023/01/28 02:17:01;;;;;;;41.90;22.90;;;;;;;-3.80;100.00;100024.66;109918;1281;23275;-65
2023/01/28 02:20:14;;;;;;;44.40;22.60;;;;;;;-3.60;100.00;100022.16;109905;1282;23000;-65
2023/01/28 02:23:15;;;;;;;34.70;19.50;;;;;;;-3.36;100.00;100020.28;109865;1282;22291;-65
2023/01/28 02:26:14;;;;;;;32.50;19.20;;;;;;;-3.24;100.00;100015.11;109829;1282;22947;-65
2023/01/28 02:29:21;;;;;;;34.80;19.90;;;;;;;-3.12;100.00;100020.15;109666;1279;385182;-65
2023/01/28 02:31:58;;;;;;;32.00;17.60;;;;;;;-2.99;100.00;100022.48;109842;1280;22304;-65
2023/01/28 02:34:39;;;;;;;37.70;19.50;;;;;;;-2.96;100.00;100019.88;110029;1280;22285;-65
2023/01/28 02:37:16;;;;;;;36.40;19.70;;;;;;;-2.91;100.00;100020.04;109919;1279;22315;-65
2023/01/28 02:39:48;;;;;;;34.30;19.30;;;;;;;-2.82;100.00;100019.30;110049;1279;23094;-66
2023/01/28 02:42:18;;;;;;;38.00;20.90;;;;;;;-2.76;100.00;100019.09;109906;1280;22368;-65
2023/01/28 02:44:47;;;;;;;35.80;20.10;;;;;;;-2.73;100.00;100026.35;109934;1280;22280;-64
2023/01/28 02:50:11;;;;;;;35.90;20.40;;;;;;;-2.62;100.00;100029.69;107318;1280;25380;-65
2023/01/28 02:55:59;;;;;;;32.30;19.30;;;;;;;-2.67;100.00;100020.50;107148;1280;22572;-63
2023/01/28 02:58:33;;;;;;;31.80;19.70;;;;;;;-2.63;100.00;100021.66;107436;1280;23114;-65
2023/01/28 03:01:02;;;;;;;35.10;19.70;;;;;;;-2.62;100.00;100024.19;107375;1280;25374;-65
2023/01/28 03:03:59;;;;;;;33.50;19.40;;;;;;;-2.63;100.00;100024.90;107641;1280;22682;-65
2023/01/28 03:06:40;;;;;;;32.00;19.50;;;;;;;-2.58;100.00;100020.86;107319;1280;22560;-65
2023/01/28 03:09:22;;;;;;;36.60;20.90;;;;;;;-2.62;100.00;100017.79;107443;1280;23260;-65
2023/01/28 03:38:41;;;;;;;33.40;18.50;;;;;;;-2.53;100.00;100011.41;109931;1281;22283;-65
2023/01/28 03:41:22;;;;;;;32.20;18.80;;;;;;;-2.55;100.00;100008.98;109919;1280;22291;-65
2023/01/28 03:43:52;;;;;;;31.20;19.60;;;;;;;-2.50;100.00;100011.02;110027;1280;22345;-65
2023/01/28 03:46:20;;;;;;;32.40;19.00;;;;;;;-2.44;100.00;100013.57;110009;1280;22296;-65
2023/01/28 03:48:49;;;;;;;33.40;19.50;;;;;;;-2.47;100.00;100018.40;110016;1280;22243;-65
2023/01/28 03:51:17;;;;;;;32.50;18.50;;;;;;;-2.46;100.00;100019.69;109948;1280;23066;-66
2023/01/28 03:53:45;;;;;;;31.10;19.00;;;;;;;-2.39;100.00;100018.90;109918;1281;22180;-66
2023/01/28 03:56:18;;;;;;;30.80;18.30;;;;;;;-2.40;100.00;100018.52;109930;1280;22287;-65
2023/01/28 03:58:52;;;;;;;30.50;20.00;;;;;;;-2.38;100.00;100014.73;109935;1281;23119;-65
2023/01/28 04:01:21;;;;;;;32.10;20.40;;;;;;;-2.37;100.00;100013.96;109939;1281;22206;-65
2023/01/28 04:03:49;;;;;;;33.00;19.00;;;;;;;-2.42;100.00;100012.58;109943;1274;23461;-65
2023/01/28 04:06:24;;;;;;;34.50;18.80;;;;;;;-2.38;100.00;100015.34;109912;1281;22268;-66
2023/01/28 04:09:13;;;;;;;33.40;19.70;;;;;;;-2.37;100.00;100015.36;109894;1281;22230;-66
2023/01/28 04:12:02;;;;;;;32.80;19.40;;;;;;;-2.38;100.00;100013.04;109904;1275;22942;-66
2023/01/28 04:14:35;;;;;;;33.80;21.80;;;;;;;-2.36;100.00;100010.09;109923;1280;22448;-64
2023/01/28 04:17:09;;;;;;;36.60;20.50;;;;;;;-2.34;100.00;100016.59;109947;1280;22881;-66
2023/01/28 04:19:39;;;;;;;36.40;20.70;;;;;;;-2.38;100.00;100018.35;109936;1280;22223;-66
2023/01/28 04:22:09;;;;;;;32.80;19.70;;;;;;;-2.35;100.00;100022.57;109925;1280;22928;-64
2023/01/28 04:24:41;;;;;;;36.30;20.50;;;;;;;-2.30;100.00;100025.77;108900;1281;24268;-65
2023/01/28 04:27:09;;;;;;;34.10;20.60;;;;;;;-2.32;100.00;100030.08;107042;1281;23002;-65
2023/01/28 04:29:37;;;;;;;39.50;21.00;;;;;;;-2.34;100.00;100026.23;107181;1281;24088;-65
2023/01/28 04:32:29;;;;;;;34.60;20.00;;;;;;;-2.31;100.00;100028.47;107363;1274;23699;-65
2023/01/28 04:35:27;;;;;;;35.40;21.30;;;;;;;-2.33;100.00;100024.98;106985;1281;23293;-65
2023/01/28 04:38:02;;;;;;;34.20;19.80;;;;;;;-2.37;100.00;100023.20;107208;1281;25502;-65
2023/01/28 04:40:36;;;;;;;32.90;19.40;;;;;;;-2.32;100.00;100018.34;107353;1281;25355;-65
2023/01/28 04:43:10;;;;;;;36.70;20.20;;;;;;;-2.33;100.00;100019.86;107289;1281;25477;-65
2023/01/28 04:45:51;;;;;;;37.60;20.20;;;;;;;-2.40;100.00;100023.23;107221;1281;23748;-64
2023/01/28 04:48:35;;;;;;;34.20;19.80;;;;;;;-2.37;100.00;100027.09;109942;1281;23003;-65
2023/01/28 04:51:22;;;;;;;34.70;20.40;;;;;;;-2.39;100.00;100025.95;109952;1281;22131;-66
2023/01/28 04:54:16;;;;;;;33.00;19.90;;;;;;;-2.44;100.00;100027.19;109747;1281;22445;-65
2023/01/28 04:56:44;;;;;;;33.40;19.90;;;;;;;-2.40;100.00;100024.63;110028;1277;22208;-66
2023/01/28 04:59:12;;;;;;;34.80;18.40;;;;;;;-2.35;100.00;100030.73;109934;1280;22405;-66
2023/01/28 05:01:40;;;;;;;31.60;18.40;;;;;;;-2.37;100.00;100030.38;110032;1280;22988;-66
2023/01/28 05:04:08;;;;;;;30.80;17.90;;;;;;;-2.41;100.00;100033.23;109942;1280;22268;-66
2023/01/28 05:06:38;;;;;;;28.90;17.00;;;;;;;-2.39;100.00;100036.26;109941;1280;22221;-66
2023/01/28 05:09:10;;;;;;;29.00;16.70;;;;;;;-2.41;100.00;100037.52;108718;1280;22629;-65
2023/01/28 05:11:41;;;;;;;27.60;16.60;;;;;;;-2.45;100.00;100036.03;107558;1280;22556;-65
2023/01/28 05:14:09;;;;;;;29.40;16.70;;;;;;;-2.41;100.00;100040.36;107241;1280;24226;-65
2023/01/28 05:16:45;;;;;;;27.60;16.90;;;;;;;-2.40;100.00;100039.79;107372;1280;25258;-65
2023/01/28 05:19:13;;;;;;;31.00;17.20;;;;;;;-2.46;100.00;100042.05;107279;1281;22559;-65
2023/01/28 05:21:42;;;;;;;27.90;16.70;;;;;;;-2.49;100.00;100039.00;107253;1281;22560;-65
2023/01/28 05:24:20;;;;;;;29.90;17.70;;;;;;;-2.45;100.00;100038.73;107143;1280;22591;-64
2023/01/28 05:26:48;;;;;;;29.70;17.40;;;;;;;-2.47;100.00;100035.99;107202;1280;22877;-66
2023/01/28 05:29:17;;;;;;;30.40;18.10;;;;;;;-2.52;100.00;100030.92;107235;1280;25188;-65
2023/01/28 05:31:46;;;;;;;29.10;17.80;;;;;;;-2.47;100.00;100029.75;107483;1277;22539;-65
2023/01/28 05:34:15;;;;;;;30.40;17.60;;;;;;;-2.50;100.00;100024.19;107257;1280;22658;-65
2023/01/28 05:36:44;;;;;;;30.20;17.80;;;;;;;-2.54;100.00;100022.69;107133;1281;26763;-65
2023/01/28 05:39:33;;;;;;;30.10;17.80;;;;;;;-2.49;100.00;100022.51;107506;1272;25487;-65
2023/01/28 05:42:02;;;;;;;32.30;18.90;;;;;;;-2.48;100.00;100025.28;107642;1277;25438;-65
2023/01/28 05:44:32;;;;;;;30.70;17.80;;;;;;;-2.53;100.00;100024.02;107477;1277;22896;-64
2023/01/28 05:47:20;;;;;;;29.60;17.50;;;;;;;-2.48;100.00;100025.96;107366;1278;25394;-65
2023/01/28 05:49:51;;;;;;;29.50;17.80;;;;;;;-2.44;100.00;100026.89;107366;1278;25516;-65
2023/01/28 05:52:51;;;;;;;31.10;17.10;;;;;;;-2.46;100.00;100024.40;107197;1275;22640;-66
2023/01/28 05:55:25;;;;;;;29.10;18.20;;;;;;;-2.48;100.00;100028.67;107386;1277;22528;-64
2023/01/28 05:57:54;;;;;;;30.10;17.50;;;;;;;-2.46;100.00;100028.05;107473;1277;22535;-65
2023/01/28 06:00:26;;;;;;;30.00;17.90;;;;;;;-2.43;100.00;100026.75;107481;1277;22549;-65
2023/01/28 06:02:55;;;;;;;36.10;20.40;;;;;;;-2.45;100.00;100031.58;110122;1277;22388;-66
2023/01/28 06:05:24;;;;;;;38.50;18.90;;;;;;;-2.44;100.00;100032.39;110159;1278;22215;-66
2023/01/28 06:07:53;;;;;;;33.10;18.50;;;;;;;-2.39;100.00;100031.74;110131;1277;23416;-65
2023/01/28 06:10:22;;;;;;;31.40;17.30;;;;;;;-2.34;100.00;100033.63;110093;1271;22205;-66
2023/01/28 06:12:51;;;;;;;33.80;20.40;;;;;;;-2.36;100.00;100029.15;110117;1277;22291;-66
2023/01/28 06:15:37;;;;;;;30.20;17.10;;;;;;;-2.38;100.00;100023.64;110128;1277;22259;-66
2023/01/28 06:18:18;;;;;;;33.40;19.50;;;;;;;-2.34;100.00;100020.83;110072;1278;22525;-66
2023/01/28 06:20:48;;;;;;;33.40;18.90;;;;;;;-2.38;100.00;100024.55;110080;1278;23023;-65
2023/01/28 06:23:18;;;;;;;32.80;18.20;;;;;;;-2.39;100.00;100022.35;110128;1278;22295;-64
2023/01/28 06:25:47;;;;;;;30.90;19.40;;;;;;;-2.38;100.00;100021.71;110080;1278;22429;-64
2023/01/28 06:28:16;;;;;;;33.30;17.80;;;;;;;-2.41;100.00;100021.20;109948;1278;23008;-64
2023/01/28 06:30:48;;;;;;;32.10;18.00;;;;;;;-2.39;100.00;100018.05;110099;1278;23176;-65
2023/01/28 06:33:17;;;;;;;32.10;18.20;;;;;;;-2.39;100.00;100026.31;110187;1277;22270;-65
2023/01/28 06:35:48;;;;;;;30.90;17.30;;;;;;;-2.45;100.00;100024.10;110181;1277;22219;-66
2023/01/28 06:38:16;;;;;;;31.30;18.90;;;;;;;-2.43;100.00;100029.55;110163;1277;22282;-64
2023/01/28 06:40:51;;;;;;;27.80;17.70;;;;;;;-2.40;100.00;100029.02;110170;1277;22312;-64
2023/01/28 06:43:26;;;;;;;30.90;17.10;;;;;;;-2.42;100.00;100029.55;110153;1277;22299;-64
2023/01/28 06:45:55;;;;;;;29.40;16.90;;;;;;;-2.42;100.00;100028.37;110130;1277;23103;-64
2023/01/28 06:48:24;;;;;;;30.10;17.30;;;;;;;-2.43;100.00;100029.95;110135;1277;22639;-65
2023/01/28 06:50:55;;;;;;;29.20;17.00;;;;;;;-2.49;100.00;100030.46;110173;1277;22959;-65
2023/01/28 06:53:23;;;;;;;29.00;16.80;;;;;;;-2.45;100.00;100030.19;110173;1277;22209;-65
2023/01/28 06:55:51;;;;;;;31.10;17.30;;;;;;;-2.46;100.00;100031.35;110162;1276;23246;-65
2023/01/28 06:58:21;;;;;;;30.30;17.80;;;;;;;-2.49;100.00;100036.00;110176;1277;22202;-65
2023/01/28 07:00:49;;;;;;;31.20;17.90;;;;;;;-2.44;100.00;100041.70;110159;1277;22296;-66
2023/01/28 07:03:17;;;;;;;28.80;16.90;;;;;;;-2.44;100.00;100039.52;110184;1277;22351;-65
2023/01/28 07:05:46;;;;;;;29.80;16.80;;;;;;;-2.46;100.00;100041.94;110159;1277;22971;-65
2023/01/28 07:08:15;;;;;;;30.70;16.40;;;;;;;-2.42;100.00;100040.14;108017;1278;22528;-65
2023/01/28 07:10:43;;;;;;;28.00;16.00;;;;;;;-2.36;100.00;100042.48;107113;1278;25504;-65
2023/01/28 07:13:11;;;;;;;28.40;18.50;;;;;;;-2.39;100.00;100040.48;107380;1277;24222;-65
2023/01/28 07:15:40;;;;;;;28.50;18.00;;;;;;;-2.42;100.00;100037.81;107297;1277;25332;-64
2023/01/28 07:18:08;;;;;;;31.10;17.00;;;;;;;-2.39;100.00;100037.15;107211;1277;25422;-65
2023/01/28 07:20:36;;;;;;;32.60;17.50;;;;;;;-2.45;100.00;100033.33;110108;1277;23141;-64
2023/01/28 07:23:05;;;;;;;28.80;16.00;;;;;;;-2.45;100.00;100026.97;110168;1277;23150;-65
2023/01/28 07:25:33;;;;;;;29.60;17.80;;;;;;;-2.40;100.00;100027.45;110155;1277;22389;-66
2023/01/28 07:28:01;;;;;;;28.00;17.40;;;;;;;-2.40;100.00;100025.90;110145;1277;22460;-65
2023/01/28 07:30:30;;;;;;;27.70;16.70;;;;;;;-2.37;100.00;100025.54;110176;1277;22233;-66
2023/01/28 07:32:59;;;;;;;26.90;16.20;;;;;;;-2.34;100.00;100023.06;110182;1277;22351;-65
2023/01/28 07:35:27;;;;;;;30.10;17.20;;;;;;;-2.37;100.00;100023.39;110133;1277;22924;-66
2023/01/28 07:37:56;;;;;;;26.70;16.30;;;;;;;-2.37;100.00;100021.06;110162;1277;23660;-66
2023/01/28 07:40:26;;;;;;;25.60;15.60;;;;;;;-2.31;100.00;100021.08;110169;1277;22207;-67
2023/01/28 12:09:41;;;;;;;38.10;21.40;;;;;;;-4.34;100.00;99901.95;103457;1305;545092;-70
2023/01/28 12:12:19;;;;;;;37.00;20.60;;;;;;;-4.22;100.00;99913.91;109732;1285;22984;-71
2023/01/28 12:15:01;;;;;;;30.40;17.00;;;;;;;-4.03;100.00;99909.17;109739;1285;22421;-71
2023/01/28 12:18:00;;;;;;;28.90;16.80;;;;;;;-3.86;100.00;99907.18;109739;1286;22223;-71
2023/01/28 12:20:44;;;;;;;32.60;17.80;;;;;;;-3.74;100.00;99901.16;109715;1286;22250;-70
2023/01/28 12:23:34;;;;;;;31.70;17.10;;;;;;;-3.57;100.00;99901.67;109457;1283;451194;-71
2023/01/28 12:26:15;;;;;;;26.50;16.30;;;;;;;-3.44;100.00;99889.21;109875;1283;23080;-71
2023/01/28 12:29:00;;;;;;;26.80;16.50;;;;;;;-3.36;100.00;99889.84;109865;1284;22425;-70
2023/01/28 12:31:34;;;;;;;29.50;16.80;;;;;;;-3.22;100.00;99888.13;109836;1282;22477;-71
2023/01/28 12:34:21;;;;;;;28.50;16.90;;;;;;;-3.14;100.00;99888.27;109818;1280;22228;-70
2023/01/28 12:36:54;;;;;;;28.00;17.20;;;;;;;-3.08;100.00;99888.50;109830;1283;22483;-70
2023/01/28 12:40:13;;;;;;;28.70;16.50;;;;;;;-2.99;100.00;99883.25;109840;1284;23059;-70
2023/01/28 12:43:30;;;;;;;27.30;16.20;;;;;;;-2.89;100.00;99877.66;109436;1289;22935;-71
2023/01/28 12:46:04;;;;;;;29.80;17.30;;;;;;;-2.87;100.00;99878.58;109497;1284;22303;-70
2023/01/28 12:48:35;;;;;;;29.20;17.50;;;;;;;-2.80;100.00;99876.11;109603;1284;23484;-70
2023/01/28 12:51:11;;;;;;;29.30;17.20;;;;;;;-2.68;100.00;99876.94;109831;1282;23114;-71
2023/01/28 12:54:14;;;;;;;29.50;16.80;;;;;;;-2.62;100.00;99877.31;109846;1283;22369;-71
2023/01/28 12:56:49;;;;;;;28.30;16.60;;;;;;;-2.58;100.00;99875.63;109572;1282;22517;-71
2023/01/28 12:59:26;;;;;;;26.80;15.90;;;;;;;-2.48;100.00;99873.63;109739;1283;22515;-71
2023/01/28 13:02:05;;;;;;;28.80;18.10;;;;;;;-2.41;100.00;99870.17;109849;1284;22263;-71
2023/01/28 13:04:58;;;;;;;29.90;17.80;;;;;;;-2.39;100.00;99867.22;109755;1283;22395;-71
2023/01/28 13:07:48;;;;;;;28.30;17.40;;;;;;;-2.34;100.00;99870.97;109727;1283;22237;-69
2023/01/28 13:10:41;;;;;;;26.90;16.20;;;;;;;-2.24;100.00;99868.92;109822;1279;22579;-71
2023/01/28 13:13:33;;;;;;;25.00;14.40;;;;;;;-2.22;100.00;99869.23;109827;1283;22292;-70
2023/01/28 13:16:03;;;;;;;27.60;16.10;;;;;;;-2.26;100.00;99867.88;109662;1284;22201;-71
2023/01/28 13:18:33;;;;;;;30.70;17.50;;;;;;;-2.23;100.00;99860.89;109709;1269;22266;-71
2023/01/28 13:21:01;;;;;;;27.30;16.10;;;;;;;-2.13;100.00;99861.15;109818;1283;22293;-71
2023/01/28 13:23:29;;;;;;;29.10;17.20;;;;;;;-2.06;100.00;99859.09;109803;1282;22225;-70
2023/01/28 13:26:08;;;;;;;28.70;17.00;;;;;;;-2.06;100.00;99860.83;109782;1283;23265;-70
2023/01/28 13:28:37;;;;;;;30.30;16.80;;;;;;;-2.08;100.00;99860.50;109831;1283;22877;-70
2023/01/28 13:31:11;;;;;;;27.80;16.20;;;;;;;-2.09;100.00;99859.63;109749;1283;22284;-69
2023/01/28 13:33:40;;;;;;;30.80;18.10;;;;;;;-2.04;100.00;99861.42;109766;1283;22233;-70
2023/01/28 13:36:17;;;;;;;30.40;17.40;;;;;;;-1.98;100.00;99860.03;109715;1283;22439;-70
2023/01/28 13:38:45;;;;;;;32.30;19.90;;;;;;;-1.99;100.00;99862.80;109823;1283;22284;-70
2023/01/28 13:41:13;;;;;;;32.20;19.60;;;;;;;-1.99;100.00;99865.69;109649;1283;22957;-70
2023/01/28 13:43:42;;;;;;;33.40;19.60;;;;;;;-1.94;100.00;99860.05;109764;1279;22369;-70
2023/01/28 13:46:13;;;;;;;32.30;20.20;;;;;;;-1.91;100.00;99860.20;109833;1278;22357;-70
2023/01/28 13:48:41;;;;;;;33.80;20.60;;;;;;;-1.92;100.00;99862.48;109822;1283;22221;-70
2023/01/28 13:51:39;;;;;;;36.50;21.50;;;;;;;-1.95;100.00;99867.96;109848;1278;23348;-69
2023/01/28 13:54:13;;;;;;;35.10;20.80;;;;;;;-1.88;100.00;99868.39;109740;1283;22481;-69
2023/01/28 13:57:00;;;;;;;34.90;20.70;;;;;;;-1.89;100.00;99861.91;109673;1277;22824;-70
2023/01/28 14:00:13;;;;;;;39.40;21.40;;;;;;;-1.93;100.00;99864.84;109837;1280;22233;-69
2023/01/28 14:03:00;;;;;;;36.50;20.40;;;;;;;-1.91;100.00;99861.10;109587;1283;22369;-70
2023/01/28 14:06:06;;;;;;;35.10;20.20;;;;;;;-1.86;100.00;99859.63;109763;1282;22505;-70
2023/01/28 14:08:56;;;;;;;39.90;21.80;;;;;;;-1.91;100.00;99856.17;109802;1279;23552;-70
2023/01/28 14:11:33;;;;;;;40.90;22.70;;;;;;;-1.98;100.00;99857.20;109770;1283;22384;-70
2023/01/28 14:14:26;;;;;;;33.70;19.70;;;;;;;-2.03;100.00;99856.80;110351;1268;22411;-72
2023/01/28 14:17:03;;;;;;;33.80;20.80;;;;;;;-1.99;100.00;99856.41;110356;1275;22289;-72
2023/01/28 14:19:35;;;;;;;30.60;18.30;;;;;;;-1.97;100.00;99853.69;110223;1275;22211;-72
2023/01/28 14:22:07;;;;;;;31.40;18.70;;;;;;;-1.98;100.00;99853.55;110260;1269;23064;-71
2023/01/28 14:24:36;;;;;;;28.40;18.20;;;;;;;-2.03;100.00;99854.30;110340;1272;22822;-71
2023/01/28 14:27:14;;;;;;;31.70;18.30;;;;;;;-2.08;100.00;99854.64;110277;1276;23163;-71
2023/01/28 14:30:16;;;;;;;29.80;17.30;;;;;;;-2.15;100.00;99856.77;110358;1269;22350;-72
2023/01/28 14:32:46;;;;;;;32.10;18.90;;;;;;;-2.21;100.00;99854.45;110324;1272;23093;-71
2023/01/28 14:35:21;;;;;;;33.50;19.10;;;;;;;-2.20;100.00;99857.60;110157;1275;22975;-71
2023/01/28 14:37:50;;;;;;;35.00;18.80;;;;;;;-2.18;100.00;99857.48;110244;1275;22430;-72
2023/01/28 14:40:18;;;;;;;31.80;18.50;;;;;;;-2.19;100.00;99856.88;110328;1275;22305;-71
2023/01/28 14:42:48;;;;;;;30.70;18.50;;;;;;;-2.26;100.00;99858.31;110218;1269;23161;-72
2023/01/28 14:45:45;;;;;;;28.60;17.60;;;;;;;-2.34;100.00;99860.75;110352;1254;22213;-71
2023/01/28 14:48:24;;;;;;;34.60;19.90;;;;;;;-2.42;100.00;99858.55;110362;1268;22257;-72
2023/01/28 14:51:30;;;;;;;30.70;17.50;;;;;;;-2.52;100.00;99861.77;110191;1275;23187;-72
2023/01/28 14:54:30;;;;;;;32.10;19.10;;;;;;;-2.57;100.00;99866.29;110394;1275;22333;-72
2023/01/28 14:57:06;;;;;;;34.10;18.80;;;;;;;-2.58;100.00;99866.46;110352;1275;22384;-71
2023/01/28 14:59:35;;;;;;;;;;;;;;;-2.60;100.00;99870.77;110263;1272;22405;-72
2023/01/28 15:02:17;;;;;;;32.00;18.20;;;;;;;-2.64;100.00;99871.56;110333;1269;23077;-71
2023/01/28 15:04:45;;;;;;;30.40;17.60;;;;;;;-2.72;100.00;99876.15;110304;1272;22289;-71
2023/01/28 15:07:17;;;;;;;36.90;19.00;;;;;;;-2.79;100.00;99876.00;110296;1268;22311;-71
2023/01/28 15:09:46;;;;;;;33.50;19.50;;;;;;;-2.90;100.00;99879.16;110437;1273;22316;-72
2023/01/28 15:12:15;;;;;;;42.20;23.10;;;;;;;-2.98;100.00;99883.73;110349;1275;22287;-71
2023/01/28 15:14:43;;;;;;;37.20;21.60;;;;;;;-3.04;100.00;99885.70;108479;1274;24351;-71
2023/01/28 15:17:25;;;;;;;41.60;23.70;;;;;;;-3.05;100.00;99889.02;107757;1268;22554;-71
2023/01/28 15:19:54;;;;;;;39.40;22.30;;;;;;;-3.06;100.00;99888.09;107663;1275;24343;-71
2023/01/28 15:22:25;;;;;;;48.10;25.60;;;;;;;-3.08;100.00;99888.50;107717;1269;25220;-71
2023/01/28 15:24:54;;;;;;;45.90;25.00;;;;;;;-3.14;100.00;99890.39;107872;1272;22523;-71
2023/01/28 15:27:27;;;;;;;44.10;24.10;;;;;;;-3.21;100.00;99888.63;107872;1273;25230;-71
2023/01/28 15:29:58;;;;;;;43.20;23.60;;;;;;;-3.31;100.00;99887.84;107662;1275;22560;-71
2023/01/28 15:32:58;;;;;;;42.40;23.00;;;;;;;-3.40;100.00;99888.58;107783;1275;22990;-71
2023/01/28 15:35:27;;;;;;;44.70;24.00;;;;;;;-3.50;100.00;99884.00;107765;1274;22561;-71
2023/01/28 15:37:56;;;;;;;48.50;25.50;;;;;;;-3.51;100.00;99882.21;108570;1275;23293;-71
2023/01/28 15:40:25;;;;;;;45.10;24.80;;;;;;;-3.52;100.00;99883.27;110129;1269;23122;-71
2023/01/28 15:42:54;;;;;;;47.90;24.60;;;;;;;-3.50;100.00;99885.14;110369;1268;22374;-71
2023/01/28 15:45:24;;;;;;;47.90;25.30;;;;;;;-3.52;100.00;99886.55;110350;1271;22984;-73
2023/01/28 15:48:02;;;;;;;40.20;24.50;;;;;;;-3.57;100.00;99886.20;110263;1275;22725;-73
2023/01/28 15:50:32;;;;;;;47.20;25.90;;;;;;;-3.62;100.00;99891.30;110178;1271;22418;-72
2023/01/28 15:53:00;;;;;;;47.10;25.90;;;;;;;-3.66;100.00;99895.30;110386;1274;22198;-72
2023/01/28 19:57:23;;;;;;;128.20;72.30;;;;;;;-3.07;100.00;99948.84;103442;1313;545763;-64
2023/01/28 19:59:52;;;;;;;43.50;26.30;;;;;;;-2.90;100.00;99957.19;109336;1288;22900;-65
2023/01/28 20:02:20;;;;;;;29.40;17.00;;;;;;;-2.69;100.00;99965.20;109402;1283;22241;-65
2023/01/28 20:04:48;;;;;;;40.40;26.50;;;;;;;-2.51;100.00;99966.34;109572;1283;22265;-65
2023/01/28 20:07:28;;;;;;;32.20;20.10;;;;;;;-2.39;100.00;99965.78;109612;1286;22284;-65
2023/01/28 20:09:56;;;;;;;39.20;28.70;;;;;;;-2.31;100.00;99965.41;109432;1283;189742;-65
2023/01/28 20:12:24;;;;;;;46.60;31.20;;;;;;;-2.18;100.00;99964.69;109765;1284;22268;-65
2023/01/28 20:14:53;;;;;;;26.20;15.20;;;;;;;-2.03;100.00;99964.08;109722;1277;22249;-65
2023/01/28 20:17:21;;;;;;;26.60;16.20;;;;;;;-1.94;100.00;99963.56;109727;1283;22260;-65
2023/01/28 20:19:49;;;;;;;29.30;19.40;;;;;;;-1.87;100.00;99962.35;109719;1283;22359;-65
2023/01/28 20:22:18;;;;;;;30.70;19.80;;;;;;;-1.82;100.00;99964.02;109798;1283;23006;-65
2023/01/28 20:24:47;;;;;;;28.90;20.00;;;;;;;-1.72;100.00;99965.27;109705;1277;22462;-65
2023/01/28 20:27:16;;;;;;;27.40;17.80;;;;;;;-1.64;100.00;99958.23;109740;1284;23230;-65
2023/01/28 20:29:44;;;;;;;24.30;14.20;;;;;;;-1.60;100.00;99961.23;109742;1284;22971;-65
2023/01/28 20:32:13;;;;;;;20.40;11.30;;;;;;;-1.59;100.00;99958.54;109761;1284;22911;-65
2023/01/28 20:34:46;;;;;;;19.30;11.60;;;;;;;-1.58;100.00;99952.52;109724;1278;23669;-65
2023/01/28 20:37:15;;;;;;;18.90;11.50;;;;;;;-1.55;100.00;99954.48;109742;1284;23056;-65
2023/01/28 20:39:45;;;;;;;22.30;12.10;;;;;;;-1.49;100.00;99951.28;109764;1284;23357;-65
2023/01/28 20:42:13;;;;;;;18.70;12.10;;;;;;;-1.48;100.00;99952.15;109804;1284;22284;-66
2023/01/28 20:44:41;;;;;;;20.70;12.70;;;;;;;-1.50;100.00;99946.40;109749;1284;22342;-65
2023/01/28 20:47:10;;;;;;;25.40;14.10;;;;;;;-1.54;100.00;99947.39;109759;1284;22982;-65
2023/01/28 20:49:39;;;;;;;26.80;18.60;;;;;;;-1.57;100.00;99945.09;109748;1284;22905;-66
2023/01/28 20:52:07;;;;;;;25.00;16.20;;;;;;;-1.55;100.00;99941.33;109769;1284;22335;-66
2023/01/28 20:54:39;;;;;;;19.90;12.30;;;;;;;-1.58;100.00;99937.39;109746;1283;22448;-66
2023/01/28 20:57:07;;;;;;;21.20;11.50;;;;;;;-1.67;100.00;99938.53;109767;1277;22523;-64
2023/01/28 20:59:35;;;;;;;27.80;18.70;;;;;;;-1.77;100.00;99934.92;109732;1276;22196;-64
2023/01/28 21:02:04;;;;;;;26.30;16.20;;;;;;;-1.80;100.00;99938.73;109752;1281;23087;-64
2023/01/28 21:04:32;;;;;;;24.50;16.60;;;;;;;-1.81;100.00;99939.77;109753;1276;22232;-64
2023/01/28 21:07:03;;;;;;;39.30;29.50;;;;;;;-1.88;100.00;99943.90;109746;1276;23015;-64
2023/01/28 21:09:31;;;;;;;24.30;15.80;;;;;;;-1.97;100.00;99938.50;109752;1277;22288;-65
2023/01/28 21:12:00;;;;;;;28.60;16.50;;;;;;;-2.05;100.00;99938.36;109754;1278;23310;-65
2023/01/28 21:14:29;;;;;;;26.50;17.20;;;;;;;-2.07;100.00;99938.41;109742;1281;22386;-64
2023/01/28 21:16:57;;;;;;;44.10;27.40;;;;;;;-2.09;100.00;99937.93;110259;1276;22448;-65
2023/01/28 21:19:25;;;;;;;55.30;35.40;;;;;;;-2.11;100.00;99940.94;110229;1276;22810;-65
2023/01/28 21:21:53;;;;;;;43.80;30.60;;;;;;;-2.19;100.00;99941.13;110244;1268;23748;-64
2023/01/28 21:24:21;;;;;;;25.30;15.90;;;;;;;-2.28;100.00;99940.84;110200;1269;22303;-65
2023/01/28 21:26:50;;;;;;;27.40;17.30;;;;;;;-2.33;100.00;99944.53;110215;1270;23102;-65
2023/01/28 21:29:18;;;;;;;40.90;28.30;;;;;;;-2.35;100.00;99943.92;110231;1273;23039;-64
2023/01/28 21:31:47;;;;;;;21.90;13.70;;;;;;;-2.35;100.00;99948.09;110244;1273;22401;-65
2023/01/28 21:34:16;;;;;;;37.60;26.20;;;;;;;-2.41;100.00;99944.30;110208;1272;22335;-65
2023/01/28 21:36:44;;;;;;;39.90;24.80;;;;;;;-2.50;100.00;99948.52;110131;1271;23013;-65
2023/01/28 21:39:12;;;;;;;88.70;50.40;;;;;;;-2.58;100.00;99947.17;110262;1273;22277;-64
2023/01/28 21:41:40;;;;;;;22.60;13.70;;;;;;;-2.61;100.00;99947.79;110237;1271;22236;-64
2023/01/28 21:44:10;;;;;;;26.90;14.50;;;;;;;-2.62;100.00;99947.89;110255;1272;22428;-64
2023/01/28 21:46:39;;;;;;;25.10;13.50;;;;;;;-2.68;100.00;99948.48;110202;1276;22222;-65
2023/01/28 21:49:08;;;;;;;25.50;16.10;;;;;;;-2.76;100.00;99946.80;110254;1275;22414;-64
2023/01/28 21:51:44;;;;;;;22.50;14.50;;;;;;;-2.81;100.00;99948.86;110151;1276;22283;-64
2023/01/28 21:54:15;;;;;;;36.00;19.40;;;;;;;-2.79;100.00;99953.21;110270;1276;22400;-64
2023/01/28 21:56:48;;;;;;;77.10;39.20;;;;;;;-2.86;100.00;99949.33;110240;1276;22262;-65
2023/01/28 21:59:26;;;;;;;107.10;52.50;;;;;;;-2.93;100.00;99949.95;110257;1275;22264;-64
2023/01/28 22:02:02;;;;;;;63.80;32.20;;;;;;;-2.93;100.00;99949.39;110248;1276;22374;-64
2023/01/28 22:04:34;;;;;;;45.70;24.70;;;;;;;-2.93;100.00;99951.52;110317;1276;22411;-65
2023/01/28 22:07:04;;;;;;;43.20;23.80;;;;;;;-2.97;100.00;99950.09;110233;1271;22645;-64
2023/01/28 22:09:33;;;;;;;80.70;42.70;;;;;;;-3.05;100.00;99951.70;110280;1276;22183;-64
2023/01/28 22:12:02;;;;;;;46.60;24.20;;;;;;;-3.10;100.00;99952.40;110288;1275;23059;-64
2023/01/28 22:14:30;;;;;;;33.60;18.80;;;;;;;-3.09;100.00;99949.09;110253;1269;22381;-64
2023/01/28 22:16:58;;;;;;;62.20;31.30;;;;;;;-3.08;100.00;99939.70;110238;1276;22254;-64
2023/01/28 22:19:27;;;;;;;56.40;29.70;;;;;;;-3.09;100.00;99939.13;110266;1276;23206;-64
2023/01/28 22:21:56;;;;;;;52.00;28.80;;;;;;;-3.16;100.00;99939.47;110230;1275;22468;-65
2023/01/28 22:24:24;;;;;;;87.90;42.10;;;;;;;-3.26;100.00;99937.61;110265;1276;22478;-65
2023/01/28 22:26:52;;;;;;;92.00;42.20;;;;;;;-3.32;100.00;99937.99;110318;1276;22217;-65
2023/01/28 22:29:21;;;;;;;88.00;42.00;;;;;;;-3.31;100.00;99943.98;110296;1276;22305;-64
2023/01/28 22:31:51;;;;;;;56.30;27.90;;;;;;;-3.31;100.00;99940.19;110303;1271;23065;-64
2023/01/28 22:34:19;;;;;;;50.10;25.40;;;;;;;-3.35;100.00;99938.39;110290;1276;22310;-64
2023/01/28 22:36:49;;;;;;;75.80;37.80;;;;;;;-3.42;100.00;99939.58;110301;1276;22821;-65
2023/01/28 22:39:18;;;;;;;97.50;44.60;;;;;;;-3.52;100.00;99935.50;110272;1276;22755;-64
2023/01/28 22:41:46;;;;;;;73.50;34.30;;;;;;;-3.61;100.00;99934.02;110305;1275;22277;-64
2023/01/28 22:44:14;;;;;;;104.30;45.20;;;;;;;-3.67;100.00;99932.17;110398;1275;22825;-64
2023/01/28 22:46:43;;;;;;;73.50;31.00;;;;;;;-3.69;100.00;99935.88;110378;1275;22524;-65